Time;durP1;ratioP1;P1;durP2;ratioP2;P2;SDS_P1;SDS_P2;PMS_P1;PMS_P2;Temp;Humidity;BMP_temperature;BMP_pressure;BME280_temperature;BME280_humidity;BME280_pressure;Samples;Min_cycle;Max_cycle;Signal;HPM_P1;HPM_P2
2022/09/12 00:00:51;;;;;;;1.47;0.70;;;14.00;99.90;;;;;;5073528;28;20476;-77
2022/09/12 00:03:18;;;;;;;1.57;0.83;;;14.00;99.90;;;;;;5073414;28;20465;-77
2022/09/12 00:05:46;;;;;;;0.83;0.83;;;13.90;99.90;;;;;;5073456;28;20467;-77
2022/09/12 00:08:14;;;;;;;1.60;0.90;;;13.90;99.90;;;;;;5073474;28;20452;-77
2022/09/12 00:10:42;;;;;;;1.43;1.33;;;13.80;99.90;;;;;;5073135;28;20445;-77
2022/09/12 00:13:11;;;;;;;3.00;1.00;;;13.80;99.90;;;;;;5073313;28;20469;-77
2022/09/12 00:15:39;;;;;;;1.87;0.93;;;13.80;99.90;;;;;;5073514;28;20886;-77
2022/09/12 00:18:06;;;;;;;4.63;0.60;;;13.80;99.90;;;;;;5073340;28;20453;-77
2022/09/12 00:20:33;;;;;;;1.17;0.60;;;13.80;99.90;;;;;;5072966;28;20879;-77
2022/09/12 00:22:59;;;;;;;1.30;0.70;;;13.80;99.90;;;;;;5072899;28;20469;-77
2022/09/12 00:25:29;;;;;;;0.83;0.53;;;13.70;99.90;;;;;;5073267;28;20437;-77
2022/09/12 00:27:56;;;;;;;0.70;0.70;;;13.70;99.90;;;;;;5072937;28;20524;-77
2022/09/12 00:30:24;;;;;;;0.87;0.70;;;13.70;99.90;;;;;;5074696;28;20790;-77
2022/09/12 00:32:53;;;;;;;1.30;1.20;;;13.70;99.90;;;;;;5077369;28;20472;-77
2022/09/12 00:35:20;;;;;;;1.63;0.83;;;13.70;99.90;;;;;;5077379;28;20449;-77
2022/09/12 00:37:46;;;;;;;0.50;0.43;;;13.70;99.90;;;;;;5077242;28;20956;-77
2022/09/12 00:40:13;;;;;;;1.10;0.97;;;13.70;99.90;;;;;;5077202;28;20484;-77
2022/09/12 00:42:40;;;;;;;0.40;0.40;;;13.60;99.90;;;;;;5077681;28;20457;-77
2022/09/12 00:45:21;;;;;;;0.80;0.70;;;13.50;99.90;;;;;;5077174;28;20471;-77
2022/09/12 00:47:50;;;;;;;0.97;0.87;;;13.50;99.90;;;;;;5077585;28;20449;-77
2022/09/12 00:50:18;;;;;;;2.30;0.60;;;13.50;99.90;;;;;;5076791;28;20436;-77
2022/09/12 00:52:47;;;;;;;2.47;1.27;;;13.50;99.90;;;;;;5076938;28;20473;-77
2022/09/12 00:55:17;;;;;;;4.57;1.60;;;13.50;99.90;;;;;;5076931;28;20460;-77
2022/09/12 00:57:49;;;;;;;2.90;1.00;;;13.60;99.90;;;;;;5076927;28;20453;-77
2022/09/12 01:00:19;;;;;;;1.27;1.17;;;13.60;99.90;;;;;;5076872;28;20456;-77
2022/09/12 01:02:50;;;;;;;1.03;0.90;;;13.50;99.90;;;;;;5077050;28;20460;-77
2022/09/12 01:05:18;;;;;;;1.83;0.70;;;13.50;99.90;;;;;;5076832;28;20420;-77
2022/09/12 01:07:47;;;;;;;2.33;0.80;;;13.50;99.90;;;;;;5076993;28;20432;-77
2022/09/12 01:10:14;;;;;;;0.73;0.73;;;13.50;99.90;;;;;;5076317;28;20951;-77
2022/09/12 01:12:43;;;;;;;0.93;0.53;;;13.50;99.90;;;;;;5076829;28;20457;-77
2022/09/12 01:15:10;;;;;;;3.53;0.97;;;13.40;99.90;;;;;;5076552;28;20452;-77
2022/09/12 01:17:48;;;;;;;1.73;0.87;;;13.40;99.90;;;;;;5076205;28;20445;-77
2022/09/12 01:20:38;;;;;;;1.93;0.60;;;13.40;99.90;;;;;;5076612;28;20465;-77
2022/09/12 01:23:43;;;;;;;1.83;0.83;;;13.40;99.90;;;;;;5076288;28;20456;-77
2022/09/12 01:26:45;;;;;;;1.17;0.70;;;13.40;99.90;;;;;;5076202;28;20436;-77
2022/09/12 01:29:30;;;;;;;2.60;0.80;;;13.40;99.90;;;;;;5076406;28;20447;-77
2022/09/12 01:32:06;;;;;;;1.40;1.07;;;13.40;99.90;;;;;;5076246;28;20425;-77
2022/09/12 01:34:41;;;;;;;1.20;0.73;;;13.40;99.90;;;;;;5076270;28;20431;-77
2022/09/12 01:37:17;;;;;;;1.27;0.60;;;13.30;99.90;;;;;;5075979;28;20799;-77
2022/09/12 01:39:51;;;;;;;1.13;0.60;;;13.30;99.90;;;;;;5076811;28;20472;-77
2022/09/12 01:42:22;;;;;;;0.60;0.50;;;13.20;99.90;;;;;;5075022;28;20465;-77
2022/09/12 01:44:56;;;;;;;2.27;0.80;;;13.20;99.90;;;;;;5076113;28;20416;-77
2022/09/12 01:47:31;;;;;;;2.00;0.93;;;13.20;99.90;;;;;;5075864;28;20409;-77
2022/09/12 01:50:02;;;;;;;1.43;0.70;;;13.20;99.90;;;;;;5075934;28;20431;-77
2022/09/12 01:52:35;;;;;;;1.20;1.03;;;13.20;99.90;;;;;;5075857;28;20475;-77
2022/09/12 01:55:06;;;;;;;1.40;0.80;;;13.20;99.90;;;;;;5075860;28;20929;-77
2022/09/12 01:57:40;;;;;;;0.87;0.70;;;13.20;99.90;;;;;;5075852;28;20421;-77
2022/09/12 02:00:10;;;;;;;1.43;0.50;;;13.20;99.90;;;;;;5076210;28;20904;-77
2022/09/12 02:02:40;;;;;;;1.70;0.83;;;13.10;99.90;;;;;;5075662;28;20476;-77
2022/09/12 02:05:11;;;;;;;0.90;0.90;;;13.10;99.90;;;;;;5076235;28;20421;-77
2022/09/12 02:07:42;;;;;;;0.70;0.60;;;13.10;99.90;;;;;;5075678;28;20440;-77
2022/09/12 02:10:13;;;;;;;0.60;0.60;;;13.10;99.90;;;;;;5075306;28;20920;-77
2022/09/12 02:12:47;;;;;;;0.60;0.60;;;13.10;99.90;;;;;;5075507;28;20464;-77
2022/09/12 02:15:17;;;;;;;1.37;0.90;;;13.10;99.90;;;;;;5075546;28;20429;-77
2022/09/12 02:17:49;;;;;;;1.73;0.83;;;13.10;99.90;;;;;;5075500;28;20457;-77
2022/09/12 02:20:20;;;;;;;0.73;0.60;;;13.10;99.90;;;;;;5075075;28;20939;-77
2022/09/12 02:22:50;;;;;;;1.03;0.60;;;13.10;99.90;;;;;;5075082;28;20453;-77
2022/09/12 02:25:19;;;;;;;0.70;0.67;;;13.00;99.90;;;;;;5075516;28;20449;-77
2022/09/12 02:27:50;;;;;;;0.80;0.50;;;13.00;99.90;;;;;;5074819;28;20469;-77
2022/09/12 02:30:18;;;;;;;0.53;0.53;;;12.90;99.90;;;;;;5075284;28;20428;-77
2022/09/12 02:32:58;;;;;;;3.70;0.83;;;13.00;99.90;;;;;;5074807;28;20468;-77
2022/09/12 02:35:32;;;;;;;1.90;1.13;;;13.00;99.90;;;;;;5076140;28;20437;-77
2022/09/12 02:38:06;;;;;;;1.90;1.13;;;12.90;99.90;;;;;;5075258;28;20425;-77
2022/09/12 02:40:34;;;;;;;1.20;0.90;;;12.90;99.90;;;;;;5075074;28;20477;-77
2022/09/12 02:43:02;;;;;;;1.37;0.80;;;13.00;99.90;;;;;;5074896;28;20848;-77
2022/09/12 02:45:31;;;;;;;0.93;0.90;;;13.00;99.90;;;;;;5075048;28;20449;-77
2022/09/12 02:48:03;;;;;;;0.93;0.93;;;13.00;99.90;;;;;;5074759;28;20438;-77
2022/09/12 02:50:31;;;;;;;2.40;1.57;;;13.00;99.90;;;;;;5074823;28;20421;-77
2022/09/12 02:53:02;;;;;;;1.83;1.30;;;13.00;99.90;;;;;;5074314;28;20935;-77
2022/09/12 02:55:29;;;;;;;7.40;1.30;;;13.00;99.90;;;;;;5073844;28;20507;-77
2022/09/12 02:57:56;;;;;;;1.63;0.90;;;13.00;99.90;;;;;;5074789;28;20480;-77
2022/09/12 03:00:24;;;;;;;1.00;0.60;;;12.90;99.90;;;;;;5074185;28;20845;-77
2022/09/12 03:03:08;;;;;;;1.43;0.80;;;13.00;99.90;;;;;;5074224;28;20457;-77
2022/09/12 03:05:40;;;;;;;1.37;0.90;;;12.90;99.90;;;;;;5074589;28;20414;-77
2022/09/12 03:08:37;;;;;;;0.87;0.67;;;13.00;99.90;;;;;;5074447;28;20519;-77
2022/09/12 03:11:19;;;;;;;2.70;1.00;;;12.90;99.90;;;;;;5048581;28;20452;-77
2022/09/12 03:13:56;;;;;;;1.20;0.80;;;12.90;99.90;;;;;;5074298;28;20461;-77
2022/09/12 03:16:33;;;;;;;2.10;0.83;;;12.90;99.90;;;;;;5074301;28;20433;-77
2022/09/12 03:19:07;;;;;;;1.13;0.50;;;12.80;99.90;;;;;;5073946;28;20527;-77
2022/09/12 03:21:45;;;;;;;1.10;1.00;;;12.90;99.90;;;;;;5074177;28;20468;-77
2022/09/12 03:24:16;;;;;;;1.53;0.80;;;12.80;99.90;;;;;;5073847;28;20449;-77
2022/09/12 03:26:50;;;;;;;0.67;0.50;;;12.80;99.90;;;;;;5074012;28;20483;-77
2022/09/12 03:29:18;;;;;;;0.60;0.43;;;12.80;99.90;;;;;;5074119;28;20433;-77
2022/09/12 03:31:51;;;;;;;1.80;1.00;;;12.80;99.90;;;;;;5073983;28;20445;-77
2022/09/12 03:34:20;;;;;;;2.23;1.77;;;12.80;99.90;;;;;;5073937;28;20477;-77
2022/09/12 03:36:47;;;;;;;1.87;1.10;;;12.80;99.90;;;;;;5073862;28;20445;-77
2022/09/12 03:39:14;;;;;;;1.87;0.87;;;12.80;99.90;;;;;;5074250;28;20859;-77
2022/09/12 03:41:41;;;;;;;0.80;0.70;;;12.80;99.90;;;;;;5073449;28;20996;-77
2022/09/12 03:44:08;;;;;;;0.87;0.57;;;12.80;99.90;;;;;;5073706;28;20472;-77
2022/09/12 03:46:35;;;;;;;1.30;0.80;;;12.80;99.90;;;;;;5073973;28;20817;-77
2022/09/12 03:49:01;;;;;;;2.93;0.80;;;12.80;99.90;;;;;;5073695;28;20468;-77
2022/09/12 03:51:29;;;;;;;1.10;1.00;;;12.80;99.90;;;;;;5073364;28;20976;-77
2022/09/12 03:53:57;;;;;;;1.17;0.97;;;12.80;99.90;;;;;;5073327;28;20484;-77
2022/09/12 03:56:24;;;;;;;0.60;0.60;;;12.70;99.90;;;;;;5073399;28;20452;-77
2022/09/12 03:58:50;;;;;;;0.90;0.80;;;12.70;99.90;;;;;;5073573;28;20451;-77
2022/09/12 04:01:19;;;;;;;2.60;0.50;;;12.70;99.90;;;;;;5073141;28;21018;-77
2022/09/12 04:03:48;;;;;;;1.37;0.57;;;12.70;99.90;;;;;;5073685;28;20465;-77
2022/09/12 04:06:18;;;;;;;2.97;0.70;;;12.70;99.90;;;;;;5073206;28;20448;-77
2022/09/12 04:08:49;;;;;;;1.33;0.63;;;12.60;99.90;;;;;;5073533;28;20444;-77
2022/09/12 04:11:16;;;;;;;0.73;0.73;;;12.60;99.90;;;;;;5073451;28;20467;-77
2022/09/12 04:13:44;;;;;;;0.50;0.50;;;12.60;99.90;;;;;;5073226;28;20477;-77
2022/09/12 04:16:12;;;;;;;1.33;1.00;;;12.60;99.90;;;;;;5073406;28;20463;-77
2022/09/12 04:18:39;;;;;;;1.77;1.07;;;12.60;99.90;;;;;;5073087;28;20444;-77
2022/09/12 04:21:07;;;;;;;1.30;0.53;;;12.60;99.90;;;;;;5073285;28;20485;-77
2022/09/12 04:23:34;;;;;;;3.03;0.80;;;12.60;99.90;;;;;;5072943;28;20469;-77
2022/09/12 04:26:05;;;;;;;1.70;0.90;;;12.60;99.90;;;;;;5072870;28;20943;-77
2022/09/12 04:28:34;;;;;;;2.50;0.70;;;12.50;99.90;;;;;;5073280;28;20509;-77
2022/09/12 04:31:03;;;;;;;1.77;1.00;;;12.50;99.90;;;;;;5072961;28;20944;-77
2022/09/12 04:33:30;;;;;;;4.87;0.80;;;12.50;99.90;;;;;;5073499;28;20461;-77
2022/09/12 04:36:02;;;;;;;1.30;0.87;;;12.50;99.90;;;;;;5073546;28;20463;-77
2022/09/12 04:38:28;;;;;;;1.80;0.50;;;12.50;99.90;;;;;;5072988;28;20405;-77
2022/09/12 04:40:55;;;;;;;3.90;1.20;;;12.50;99.90;;;;;;5073068;28;20492;-77
2022/09/12 04:43:24;;;;;;;0.60;0.60;;;12.40;99.90;;;;;;5072790;28;20532;-77
2022/09/12 04:45:51;;;;;;;0.97;0.70;;;12.40;99.90;;;;;;5073277;28;20460;-77
2022/09/12 04:48:17;;;;;;;1.00;0.50;;;12.40;99.90;;;;;;5073076;28;20501;-78
2022/09/12 04:50:44;;;;;;;1.17;1.00;;;12.40;99.90;;;;;;5072804;28;20806;-77
2022/09/12 04:53:11;;;;;;;0.90;0.90;;;12.40;99.90;;;;;;5072986;28;20834;-77
2022/09/12 04:55:38;;;;;;;8.53;0.70;;;12.30;99.90;;;;;;5073009;28;20456;-77
2022/09/12 04:58:04;;;;;;;4.60;1.33;;;12.40;99.90;;;;;;5072994;28;20815;-77
2022/09/12 05:00:33;;;;;;;1.13;1.03;;;12.40;99.90;;;;;;5072650;28;20437;-77
2022/09/12 05:03:00;;;;;;;1.30;0.77;;;12.40;99.90;;;;;;5072518;28;21045;-77
2022/09/12 05:05:27;;;;;;;3.07;1.63;;;12.40;99.90;;;;;;5072605;28;20967;-77
2022/09/12 05:07:54;;;;;;;2.40;1.43;;;12.40;99.90;;;;;;5072876;28;20441;-77
2022/09/12 05:10:22;;;;;;;2.43;1.10;;;12.40;99.90;;;;;;5073075;28;20475;-77
2022/09/12 05:12:49;;;;;;;4.10;0.90;;;12.30;99.90;;;;;;5072717;28;20980;-77
2022/09/12 05:15:16;;;;;;;1.33;0.83;;;12.30;99.90;;;;;;5072536;28;20466;-77
2022/09/12 05:17:44;;;;;;;1.20;0.70;;;12.30;99.90;;;;;;5074187;28;20452;-77
2022/09/12 05:20:12;;;;;;;1.50;1.10;;;12.40;99.90;;;;;;5076550;28;20842;-77
2022/09/12 05:22:39;;;;;;;1.33;0.77;;;12.40;99.90;;;;;;5076326;28;20526;-77
2022/09/12 05:25:06;;;;;;;1.90;0.50;;;12.40;99.90;;;;;;5076498;28;20437;-77
2022/09/12 05:27:33;;;;;;;2.03;0.70;;;12.40;99.90;;;;;;5075934;28;20483;-77
2022/09/12 05:30:00;;;;;;;1.87;0.90;;;12.50;99.90;;;;;;5076367;28;20437;-77
2022/09/12 05:32:31;;;;;;;1.73;0.93;;;12.50;99.90;;;;;;5076241;28;20461;-77
2022/09/12 05:34:59;;;;;;;2.60;0.93;;;12.50;99.90;;;;;;5076293;28;20425;-77
2022/09/12 05:37:26;;;;;;;2.73;1.43;;;12.50;99.90;;;;;;5076203;28;20445;-77
2022/09/12 05:39:52;;;;;;;4.60;1.10;;;12.60;99.90;;;;;;5076001;28;20459;-77
2022/09/12 05:42:19;;;;;;;0.80;0.77;;;12.60;99.90;;;;;;5076038;28;20489;-77
2022/09/12 05:44:46;;;;;;;1.37;1.17;;;12.60;99.90;;;;;;5076094;28;20461;-77
2022/09/12 05:47:12;;;;;;;2.97;1.10;;;12.70;99.90;;;;;;5075930;28;20809;-77
2022/09/12 05:49:39;;;;;;;1.27;0.80;;;12.70;99.90;;;;;;5076126;28;20452;-77
2022/09/12 05:52:07;;;;;;;2.00;1.67;;;12.70;99.90;;;;;;5075552;28;20794;-77
2022/09/12 05:54:34;;;;;;;2.07;1.60;;;12.70;99.90;;;;;;5075625;28;20948;-77
2022/09/12 05:57:01;;;;;;;1.83;1.10;;;12.70;99.90;;;;;;5075767;28;20455;-77
2022/09/12 05:59:27;;;;;;;1.13;0.50;;;12.70;99.90;;;;;;5075878;28;20456;-77
2022/09/12 06:01:54;;;;;;;1.13;1.13;;;12.80;99.90;;;;;;5075669;28;20518;-77
2022/09/12 06:04:22;;;;;;;1.53;0.80;;;12.80;99.90;;;;;;5076003;28;20445;-77
2022/09/12 06:06:49;;;;;;;1.23;1.00;;;12.80;99.90;;;;;;5075501;28;20935;-77
2022/09/12 06:09:17;;;;;;;2.37;1.53;;;12.90;99.90;;;;;;5075398;28;20444;-77
2022/09/12 06:11:45;;;;;;;1.43;1.33;;;12.90;99.90;;;;;;5075327;28;20955;-77
2022/09/12 06:14:14;;;;;;;1.00;0.80;;;13.00;99.90;;;;;;5075512;28;20487;-77
2022/09/12 06:16:41;;;;;;;2.13;1.20;;;13.10;99.90;;;;;;5075751;28;20478;-77
2022/09/12 06:19:14;;;;;;;1.23;1.10;;;13.40;99.90;;;;;;5075946;28;20482;-77
2022/09/12 06:21:40;;;;;;;1.53;1.03;;;13.80;99.90;;;;;;5075577;28;20475;-77
2022/09/12 06:24:07;;;;;;;1.17;0.90;;;14.20;99.90;;;;;;5075321;28;20473;-77
2022/09/12 06:26:36;;;;;;;1.80;0.70;;;14.50;99.90;;;;;;5074914;28;20488;-77
2022/09/12 06:29:03;;;;;;;0.80;0.60;;;15.00;99.90;;;;;;5075105;28;20441;-77
2022/09/12 06:31:32;;;;;;;3.07;1.13;;;15.20;99.90;;;;;;5075224;28;20436;-77
2022/09/12 06:34:01;;;;;;;1.17;1.07;;;15.30;99.90;;;;;;5075075;28;20832;-77
2022/09/12 06:36:29;;;;;;;3.27;1.23;;;15.30;99.90;;;;;;5074826;28;20444;-77
2022/09/12 06:38:57;;;;;;;3.80;1.30;;;15.30;99.90;;;;;;5075264;28;20469;-77
2022/09/12 06:41:25;;;;;;;2.03;0.90;;;15.20;99.90;;;;;;5075782;28;20863;-77
2022/09/12 06:43:54;;;;;;;2.20;1.20;;;15.10;99.90;;;;;;5075128;28;20473;-77
2022/09/12 06:46:21;;;;;;;3.23;1.17;;;15.00;99.90;;;;;;5075402;28;20809;-77
2022/09/12 06:48:48;;;;;;;1.80;0.87;;;15.10;99.90;;;;;;5074579;28;20457;-77
2022/09/12 06:51:16;;;;;;;0.90;0.80;;;15.10;99.90;;;;;;5074612;28;20421;-77
2022/09/12 06:53:44;;;;;;;1.73;1.10;;;15.10;99.90;;;;;;5074633;28;20479;-77
2022/09/12 06:56:13;;;;;;;3.20;1.10;;;15.10;99.90;;;;;;5074638;28;20440;-77
2022/09/12 06:58:40;;;;;;;1.03;0.70;;;15.10;99.90;;;;;;5074372;28;20437;-77
2022/09/12 07:01:11;;;;;;;3.07;1.63;;;15.10;99.90;;;;;;5074238;28;20968;-77
2022/09/12 07:03:39;;;;;;;0.97;0.60;;;15.20;99.90;;;;;;5074764;28;20491;-77
2022/09/12 07:06:08;;;;;;;1.27;0.93;;;15.30;99.90;;;;;;5074638;28;20459;-77
2022/09/12 07:08:35;;;;;;;3.23;1.40;;;15.40;99.90;;;;;;5074505;28;20436;-77
2022/09/12 07:11:09;;;;;;;1.20;1.10;;;15.50;99.90;;;;;;5074946;28;20485;-77
2022/09/12 07:13:36;;;;;;;0.73;0.60;;;15.60;99.90;;;;;;5074344;28;20519;-78
2022/09/12 07:16:04;;;;;;;1.60;0.70;;;15.60;99.90;;;;;;5074320;28;20441;-77
2022/09/12 07:18:32;;;;;;;1.70;0.80;;;15.70;99.90;;;;;;5074243;28;20445;-77
2022/09/12 07:21:00;;;;;;;0.80;0.80;;;15.80;99.90;;;;;;5074210;28;20449;-77
2022/09/12 07:23:27;;;;;;;1.30;1.20;;;15.90;99.90;;;;;;5074057;28;20488;-77
2022/09/12 07:25:56;;;;;;;0.60;0.60;;;16.00;99.90;;;;;;5073967;28;20449;-78
2022/09/12 07:28:23;;;;;;;0.97;0.73;;;16.10;99.90;;;;;;5074104;28;20433;-78
2022/09/12 07:30:50;;;;;;;0.90;0.77;;;16.20;99.90;;;;;;5074016;28;20510;-78
2022/09/12 07:33:17;;;;;;;1.83;0.90;;;16.30;99.90;;;;;;5073950;28;20472;-78
2022/09/12 07:35:45;;;;;;;1.03;0.77;;;16.50;99.90;;;;;;5073981;28;20445;-78
2022/09/12 07:38:11;;;;;;;0.87;0.77;;;16.70;99.90;;;;;;5073738;28;20770;-78
2022/09/12 07:40:38;;;;;;;1.10;0.73;;;16.90;99.90;;;;;;5073284;28;20449;-78
2022/09/12 07:43:05;;;;;;;0.60;0.60;;;17.00;99.90;;;;;;5073691;28;20492;-78
2022/09/12 07:45:31;;;;;;;1.07;0.77;;;17.20;99.90;;;;;;5073498;28;20959;-78
2022/09/12 07:47:58;;;;;;;0.70;0.50;;;17.30;99.90;;;;;;5073543;28;20430;-78
2022/09/12 07:50:25;;;;;;;0.77;0.60;;;17.40;99.90;;;;;;5073763;28;20840;-78
2022/09/12 07:52:55;;;;;;;1.33;0.60;;;17.50;99.90;;;;;;5073265;28;20518;-78
2022/09/12 07:55:22;;;;;;;1.10;1.00;;;17.60;99.90;;;;;;5073623;28;20805;-78
2022/09/12 07:57:49;;;;;;;0.87;0.87;;;17.60;99.90;;;;;;5073634;28;20526;-78
2022/09/12 08:00:17;;;;;;;0.70;0.60;;;17.70;99.90;;;;;;5073873;28;20506;-78
2022/09/12 08:02:44;;;;;;;1.20;0.60;;;17.80;99.90;;;;;;5073460;28;20492;-78
2022/09/12 08:05:10;;;;;;;1.10;0.60;;;17.90;99.90;;;;;;5073557;28;20453;-78
2022/09/12 08:07:37;;;;;;;1.70;0.80;;;18.10;99.90;;;;;;5073804;28;20444;-79
2022/09/12 08:10:06;;;;;;;0.93;0.63;;;18.20;99.90;;;;;;5073534;28;20445;-85
2022/09/12 08:12:33;;;;;;;0.87;0.70;;;18.30;99.90;;;;;;5074361;28;20494;-89
2022/09/12 08:15:01;;;;;;;1.10;0.60;;;18.40;99.90;;;;;;5074180;28;20453;-88
2022/09/12 08:17:28;;;;;;;0.60;0.60;;;18.60;99.90;;;;;;5074073;28;20536;-88
2022/09/12 08:19:55;;;;;;;2.60;0.73;;;18.70;99.90;;;;;;5074159;28;20476;-89
2022/09/12 08:22:22;;;;;;;1.50;0.87;;;18.80;99.90;;;;;;5074042;28;20481;-89
2022/09/12 08:24:48;;;;;;;3.70;0.70;;;19.00;99.90;;;;;;5074392;28;20455;-89
2022/09/12 08:27:17;;;;;;;0.87;0.87;;;19.10;99.90;;;;;;5074135;28;20495;-88
2022/09/12 08:29:43;;;;;;;0.70;0.70;;;19.30;99.90;;;;;;5074095;28;20481;-88
2022/09/12 08:32:10;;;;;;;1.20;0.73;;;19.50;99.90;;;;;;5074122;28;20522;-88
2022/09/12 08:34:37;;;;;;;0.67;0.67;;;19.60;99.90;;;;;;5074307;28;20448;-88
2022/09/12 08:37:04;;;;;;;0.60;0.50;;;19.70;99.90;;;;;;5074024;28;20437;-88
2022/09/12 08:39:31;;;;;;;1.67;0.93;;;19.80;99.90;;;;;;5073929;28;20498;-88
2022/09/12 08:42:01;;;;;;;0.87;0.70;;;19.80;99.90;;;;;;5073900;28;20484;-88
2022/09/12 08:44:57;;;;;;;0.57;0.57;;;20.00;99.90;;;;;;5074306;28;20444;-89
2022/09/12 08:47:28;;;;;;;0.90;0.50;;;20.00;99.90;;;;;;5073767;28;20440;-88
2022/09/12 08:50:06;;;;;;;0.70;0.70;;;19.90;99.90;;;;;;5074021;28;20433;-89
2022/09/12 08:52:38;;;;;;;0.60;0.50;;;20.00;99.90;;;;;;5075047;28;20556;-89
2022/09/12 08:55:11;;;;;;;1.00;0.57;;;20.20;99.90;;;;;;5078603;28;20436;-88
2022/09/12 08:57:38;;;;;;;1.03;0.73;;;20.50;99.90;;;;;;5077341;28;20416;-83
2022/09/12 09:00:12;;;;;;;0.60;0.60;;;20.60;99.90;;;;;;5077115;28;20539;-85
2022/09/12 09:02:54;;;;;;;0.80;0.53;;;20.80;99.90;;;;;;5076604;28;20483;-84
2022/09/12 09:05:29;;;;;;;0.50;0.50;;;21.10;99.90;;;;;;5077608;28;20447;-83
2022/09/12 09:08:16;;;;;;;0.70;0.70;;;21.40;99.90;;;;;;5076572;28;20440;-84
2022/09/12 09:10:51;;;;;;;0.60;0.50;;;21.60;99.90;;;;;;5076787;28;20439;-84
2022/09/12 09:16:24;;;;;;;0.87;0.73;;;22.00;99.90;;;;;;5076430;28;20535;-84
2022/09/12 09:18:53;;;;;;;0.60;0.60;;;22.00;99.90;;;;;;5076659;28;20432;-85
2022/09/12 09:21:25;;;;;;;3.80;0.80;;;21.90;99.90;;;;;;5076225;28;20455;-85
2022/09/12 09:23:58;;;;;;;0.60;0.60;;;21.90;99.90;;;;;;5076380;28;20866;-84
2022/09/12 09:26:31;;;;;;;0.57;0.57;;;21.90;99.90;;;;;;5076587;28;20484;-83
2022/09/12 09:29:02;;;;;;;0.97;0.60;;;21.90;99.90;;;;;;5076283;28;20490;-84
2022/09/12 09:31:34;;;;;;;1.33;0.77;;;22.00;99.90;;;;;;5076414;28;20432;-84
2022/09/12 09:34:01;;;;;;;0.80;0.60;;;22.20;99.90;;;;;;5076554;28;20463;-84
2022/09/12 09:36:42;;;;;;;1.30;0.83;;;22.40;99.90;;;;;;5076272;28;20444;-84
2022/09/12 09:39:17;;;;;;;0.90;0.60;;;22.50;99.90;;;;;;5076288;28;20479;-85
2022/09/12 09:42:01;;;;;;;0.73;0.60;;;22.60;99.90;;;;;;5075914;28;20428;-84
2022/09/12 09:44:29;;;;;;;0.73;0.60;;;22.60;99.90;;;;;;5076655;28;20428;-84
2022/09/12 09:46:59;;;;;;;0.60;0.50;;;22.80;99.90;;;;;;5076115;28;20202;-84
2022/09/12 09:49:28;;;;;;;0.50;0.50;;;23.10;99.90;;;;;;5076316;28;20198;-84
2022/09/12 09:51:56;;;;;;;0.63;0.63;;;23.40;99.90;;;;;;5075921;28;20206;-84
2022/09/12 09:54:26;;;;;;;0.80;0.63;;;23.40;99.90;;;;;;5076669;28;20445;-85
2022/09/12 09:56:52;;;;;;;0.60;0.60;;;23.30;99.90;;;;;;5076743;28;20448;-84
2022/09/12 09:59:25;;;;;;;0.60;0.60;;;23.20;99.90;;;;;;5075898;28;20450;-85
2022/09/12 10:01:56;;;;;;;0.60;0.50;;;23.10;99.90;;;;;;5075587;28;20435;-85
2022/09/12 10:04:26;;;;;;;0.50;0.50;;;23.00;99.90;;;;;;5075261;28;20213;-84
2022/09/12 10:06:58;;;;;;;0.50;0.50;;;23.00;99.90;;;;;;5075754;28;20206;-85
2022/09/12 10:09:27;;;;;;;0.60;0.60;;;23.10;99.90;;;;;;5076031;28;20213;-84
2022/09/12 10:11:55;;;;;;;0.50;0.50;;;23.10;99.90;;;;;;5075333;28;20802;-84
2022/09/12 10:14:37;;;;;;;0.73;0.50;;;23.20;99.90;;;;;;5075377;28;20460;-84
2022/09/12 10:17:24;;;;;;;0.70;0.50;;;23.20;99.90;;;;;;5075607;28;20432;-84
2022/09/12 10:19:53;;;;;;;0.60;0.50;;;23.20;99.90;;;;;;5075565;28;20471;-84
2022/09/12 10:22:22;;;;;;;0.63;0.60;;;23.20;99.90;;;;;;5075314;28;20496;-84
2022/09/12 10:24:52;;;;;;;1.07;1.00;;;23.40;99.90;;;;;;5075446;28;20202;-84
2022/09/12 10:27:22;;;;;;;1.07;0.60;;;23.50;99.90;;;;;;5075058;28;20325;-84
2022/09/12 10:29:53;;;;;;;0.90;0.53;;;23.70;99.90;;;;;;5076000;28;20432;-84
2022/09/12 10:32:24;;;;;;;0.50;0.50;;;23.90;99.90;;;;;;5074932;28;20476;-85
2022/09/12 10:34:57;;;;;;;1.53;0.57;;;23.70;99.90;;;;;;5075309;28;20197;-84
2022/09/12 10:37:29;;;;;;;0.60;0.50;;;23.80;99.90;;;;;;5075232;28;20217;-84
2022/09/12 10:39:58;;;;;;;0.60;0.50;;;24.00;97.90;;;;;;5075174;28;20277;-83
2022/09/12 10:42:47;;;;;;;0.40;0.40;;;24.10;98.70;;;;;;5074739;28;20685;-84
2022/09/12 10:45:23;;;;;;;0.93;0.50;;;24.10;98.80;;;;;;5074800;28;20637;-84
2022/09/12 10:47:50;;;;;;;0.70;0.57;;;24.10;98.70;;;;;;5075202;28;20201;-85
2022/09/12 10:50:27;;;;;;;0.55;0.55;;;24.20;99.50;;;;;;5074952;28;20666;-84
2022/09/12 10:52:54;;;;;;;0.40;0.40;;;24.60;99.90;;;;;;5074976;28;20232;-84
2022/09/12 10:55:29;;;;;;;0.40;0.40;;;25.10;97.80;;;;;;5074542;28;20189;-84
2022/09/12 10:58:16;;;;;;;0.85;0.50;;;25.50;95.20;;;;;;5075389;28;20539;-84
2022/09/12 11:00:51;;;;;;;0.70;0.60;;;26.00;94.90;;;;;;5074476;28;20525;-84
2022/09/12 11:03:45;;;;;;;0.40;0.40;;;26.30;95.00;;;;;;5074575;28;20221;-85
2022/09/12 11:06:22;;;;;;;0.50;0.50;;;26.20;94.50;;;;;;5074653;28;20190;-84
2022/09/12 11:09:05;;;;;;;0.50;0.50;;;25.40;93.70;;;;;;5074720;28;20637;-84
2022/09/12 11:11:58;;;;;;;0.50;0.47;;;25.10;93.90;;;;;;5075185;28;20198;-86
2022/09/12 11:14:41;;;;;;;0.50;0.50;;;24.70;93.80;;;;;;5074081;28;20273;-86
2022/09/12 11:17:19;;;;;;;0.43;0.43;;;24.40;94.50;;;;;;5073974;28;20729;-84
2022/09/12 11:20:09;;;;;;;0.50;0.50;;;24.30;94.80;;;;;;5074340;28;20183;-85
2022/09/12 11:23:17;;;;;;;0.50;0.50;;;24.10;95.40;;;;;;5044661;28;20682;-85
2022/09/12 11:25:48;;;;;;;2.70;0.47;;;23.90;95.70;;;;;;5074508;28;20198;-85
2022/09/12 11:28:36;;;;;;;0.40;0.40;;;23.90;95.40;;;;;;5073762;28;20230;-85
2022/09/12 11:31:29;;;;;;;0.40;0.40;;;23.80;94.60;;;;;;5074211;28;20191;-84
2022/09/12 11:33:58;;;;;;;0.40;0.40;;;23.90;91.50;;;;;;5070845;28;20214;-84
2022/09/12 11:36:33;;;;;;;0.50;0.50;;;23.80;92.30;;;;;;5074026;28;20217;-84
2022/09/12 11:39:13;;;;;;;0.50;0.50;;;23.80;92.60;;;;;;5073776;28;20567;-84
2022/09/12 11:41:42;;;;;;;0.50;0.40;;;23.70;94.20;;;;;;5073925;28;20642;-84
2022/09/12 11:44:17;;;;;;;0.50;0.50;;;23.60;94.40;;;;;;5073474;28;20523;-84
2022/09/12 11:46:44;;;;;;;0.63;0.60;;;23.60;94.50;;;;;;5073883;28;20193;-84
2022/09/12 11:49:20;;;;;;;0.40;0.40;;;23.60;94.70;;;;;;5073950;28;20202;-84
2022/09/12 11:51:53;;;;;;;0.40;0.40;;;23.50;95.70;;;;;;5073811;28;20194;-84
2022/09/12 11:54:28;;;;;;;0.60;0.50;;;23.50;94.90;;;;;;5073786;28;20189;-83
2022/09/12 11:57:01;;;;;;;0.50;0.50;;;23.50;94.70;;;;;;5073819;28;20432;-84
2022/09/12 11:59:38;;;;;;;0.40;0.40;;;23.50;95.00;;;;;;5073423;28;20814;-83
2022/09/12 12:02:12;;;;;;;0.67;0.50;;;23.40;94.30;;;;;;5073286;28;20225;-84
2022/09/12 12:04:44;;;;;;;0.50;0.50;;;23.40;93.70;;;;;;5073544;28;20460;-84
2022/09/12 12:07:11;;;;;;;0.30;0.30;;;23.50;94.00;;;;;;5073674;28;20201;-84
2022/09/12 12:09:49;;;;;;;0.50;0.40;;;23.40;94.30;;;;;;5073557;28;20197;-84
2022/09/12 12:12:19;;;;;;;0.50;0.50;;;23.40;94.30;;;;;;5073768;28;20230;-84
2022/09/12 12:14:50;;;;;;;1.07;0.60;;;23.40;94.70;;;;;;5073232;28;20929;-84
2022/09/12 12:17:18;;;;;;;1.80;0.60;;;23.40;93.60;;;;;;5073627;28;20194;-84
2022/09/12 12:19:47;;;;;;;0.50;0.50;;;23.30;94.00;;;;;;5073454;28;20198;-84
2022/09/12 12:22:20;;;;;;;0.50;0.40;;;23.20;94.40;;;;;;5073330;28;20449;-84
2022/09/12 12:25:07;;;;;;;0.40;0.40;;;23.10;94.20;;;;;;5073780;28;20221;-84
2022/09/12 12:27:50;;;;;;;0.50;0.47;;;23.10;92.60;;;;;;5072755;28;20229;-84
2022/09/12 12:31:02;;;;;;;0.93;0.60;;;22.90;92.10;;;;;;5073600;28;20190;-83
2022/09/12 12:33:52;;;;;;;0.37;0.30;;;22.80;92.90;;;;;;5073472;28;20218;-84
2022/09/12 12:36:39;;;;;;;0.40;0.40;;;22.70;93.10;;;;;;5073222;28;20471;-84
2022/09/12 12:39:45;;;;;;;0.87;0.50;;;22.50;93.50;;;;;;5074078;28;20489;-85
2022/09/12 12:42:44;;;;;;;0.40;0.30;;;22.50;93.20;;;;;;5070827;28;20813;-84
2022/09/12 12:45:44;;;;;;;0.43;0.43;;;22.40;93.70;;;;;;5072558;28;20488;-84
2022/09/12 12:48:16;;;;;;;0.43;0.40;;;22.30;92.60;;;;;;5073159;28;20429;-84
2022/09/12 12:50:43;;;;;;;0.50;0.40;;;22.30;93.40;;;;;;5073146;28;20432;-85
2022/09/12 12:53:20;;;;;;;0.37;0.30;;;22.30;92.40;;;;;;5072873;28;20472;-84
2022/09/12 12:55:50;;;;;;;0.50;0.37;;;22.20;92.80;;;;;;5073121;28;20440;-84
2022/09/12 12:58:29;;;;;;;0.40;0.40;;;22.10;92.90;;;;;;5073023;28;20452;-84
2022/09/12 13:01:16;;;;;;;0.43;0.43;;;22.10;93.50;;;;;;5073037;28;20428;-84
2022/09/12 13:03:52;;;;;;;0.40;0.40;;;22.00;94.60;;;;;;5072904;28;21040;-83
2022/09/12 13:06:31;;;;;;;0.50;0.50;;;22.00;95.40;;;;;;5073019;28;20435;-84
2022/09/12 13:09:01;;;;;;;0.60;0.60;;;22.00;94.90;;;;;;5072997;28;20444;-83
2022/09/12 13:11:31;;;;;;;1.67;0.50;;;22.10;94.10;;;;;;5072945;28;20437;-84
2022/09/12 13:14:00;;;;;;;0.40;0.40;;;22.10;94.30;;;;;;5072689;28;20456;-83